This is the latest recevied weather packets stored in our database for station/object YC0TBU. If no packets are shown the sender has not sent any weather packets the latest 10 day(s).
| Time | Temp. | Humidity | Pressure | Rain* | Wind** | Luminosity | Snow |
|---|---|---|---|---|---|---|---|
| 1777425016 | 34.44° C | 57% | 1007 hPa | - | - | 0 W/m² | - |
| 1777424694 | 33.89° C | 57% | 1007 hPa | - | - | 0 W/m² | - |
| 1777424372 | 33.89° C | 58% | 1007 hPa | - | - | 0 W/m² | - |
| 1777424050 | 33.89° C | 58% | 1007 hPa | - | - | 0 W/m² | - |
| 1777423728 | 33.89° C | 58% | 1007 hPa | - | - | 0 W/m² | - |
| 1777423406 | 33.89° C | 58% | 1007 hPa | - | - | 0 W/m² | - |
| 1777423084 | 33.89° C | 58% | 1007 hPa | - | - | 0 W/m² | - |
| 1777422762 | 33.89° C | 58% | 1007 hPa | - | - | 0 W/m² | - |
| 1777422440 | 33.89° C | 58% | 1007 hPa | - | - | 0 W/m² | - |
| 1777422118 | 33.33° C | 59% | 1007 hPa | - | - | 0 W/m² | - |
| 1777421796 | 33.33° C | 59% | 1007 hPa | - | - | 0 W/m² | - |
| 1777421474 | 33.33° C | 60% | 1007 hPa | - | - | 0 W/m² | - |
| 1777421152 | 32.78° C | 62% | 1007 hPa | - | - | 0 W/m² | - |
| 1777420830 | 32.22° C | 64% | 1007 hPa | - | - | 0 W/m² | - |
| 1777420508 | 31.11° C | 69% | 1007 hPa | - | - | 0 W/m² | - |
| 1777420186 | 30° C | 75% | 1007 hPa | - | - | 0 W/m² | - |
| 1777419864 | 30° C | 75% | 1007 hPa | - | - | 0 W/m² | - |
| 1777419542 | 30° C | 74% | 1007 hPa | - | - | 0 W/m² | - |
| 1777419220 | 29.44° C | 75% | 1007 hPa | - | - | 0 W/m² | - |
| 1777418898 | 30° C | 75% | 1007 hPa | - | - | 0 W/m² | - |
| 1777418576 | 30° C | 76% | 1007 hPa | - | - | 0 W/m² | - |
| 1777418254 | 29.44° C | 76% | 1006 hPa | - | - | 0 W/m² | - |
| 1777417932 | 30° C | 76% | 1006 hPa | - | - | 0 W/m² | - |
| 1777417610 | 29.44° C | 76% | 1006 hPa | - | - | 0 W/m² | - |
| 1777417288 | 29.44° C | 76% | 1006 hPa | - | - | 0 W/m² | - |
* Rain since midnight (hover to see other rain measurements)
** Current wind speed in m/s (hover to see current wind gust speed)